createdAt,value
2023-04-15T00:00:05.999Z,4.7571
2023-04-15T00:01:06.334Z,4.7890
2023-04-15T00:02:06.645Z,4.8103
2023-04-15T00:03:07.037Z,4.7973
2023-04-15T00:04:07.782Z,4.7970
2023-04-15T00:05:08.187Z,4.8026
2023-04-15T00:06:08.550Z,4.8026
2023-04-15T00:07:08.877Z,4.8285
2023-04-15T00:08:09.156Z,4.8253
2023-04-15T00:09:09.528Z,4.7978
2023-04-15T00:10:09.823Z,4.7267
2023-04-15T00:11:10.075Z,4.7489
2023-04-15T00:12:10.389Z,4.7961
2023-04-15T00:13:10.676Z,4.8281
2023-04-15T00:14:10.969Z,4.8463
2023-04-15T00:15:11.229Z,4.9060
2023-04-15T00:16:11.507Z,4.8651
2023-04-15T00:17:11.741Z,4.9080
2023-04-15T00:18:12.038Z,4.9275
2023-04-15T00:19:12.337Z,4.9297
2023-04-15T00:20:12.637Z,4.9421
2023-04-15T00:21:12.928Z,4.8733
2023-04-15T00:22:13.231Z,4.7949
2023-04-15T00:23:13.470Z,4.9356
2023-04-15T00:24:13.767Z,5.0575
2023-04-15T00:25:14.080Z,5.1487
2023-04-15T00:26:14.344Z,5.2210
2023-04-15T00:27:14.669Z,5.2085
2023-04-15T00:28:14.964Z,5.2202
2023-04-15T00:29:15.244Z,5.1776
2023-04-15T00:30:15.559Z,5.2021
2023-04-15T00:31:15.947Z,5.1941
2023-04-15T00:32:16.258Z,5.2349
2023-04-15T00:33:16.508Z,5.2631
2023-04-15T00:34:16.791Z,5.2570
2023-04-15T00:35:17.129Z,5.2898
2023-04-15T00:36:17.416Z,5.3049
2023-04-15T00:37:17.755Z,5.2629
2023-04-15T00:38:18.026Z,5.2350
2023-04-15T00:39:18.296Z,5.2433
2023-04-15T00:40:18.576Z,5.2825
2023-04-15T00:41:18.860Z,5.2371
2023-04-15T00:42:19.101Z,5.1819
2023-04-15T00:43:19.381Z,5.1357
2023-04-15T00:44:19.920Z,5.1146
2023-04-15T00:45:20.252Z,5.1115
2023-04-15T00:46:20.675Z,5.0396
2023-04-15T00:47:21.036Z,4.8667
2023-04-15T00:48:21.360Z,4.7782
2023-04-15T00:49:21.579Z,4.8023
2023-04-15T00:50:21.860Z,4.7258
2023-04-15T00:51:22.114Z,4.7525
2023-04-15T00:52:22.437Z,4.9263
2023-04-15T00:53:22.816Z,5.0047
2023-04-15T00:54:23.140Z,5.0430
2023-04-15T00:55:23.421Z,5.0645
2023-04-15T00:56:23.689Z,5.1322
2023-04-15T00:57:23.999Z,5.2158
2023-04-15T00:58:24.340Z,5.2016
2023-04-15T00:59:24.623Z,5.1819
2023-04-15T01:00:24.963Z,5.1703
2023-04-15T01:01:25.164Z,5.1357
2023-04-15T01:02:25.483Z,5.1289
2023-04-15T01:03:25.947Z,5.1123
2023-04-15T01:04:26.564Z,5.1290
2023-04-15T01:05:26.894Z,5.1994
2023-04-15T01:06:27.173Z,5.2838
2023-04-15T01:07:27.400Z,5.2886
2023-04-15T01:08:27.697Z,5.2556
2023-04-15T01:09:27.979Z,5.2714
2023-04-15T01:10:28.244Z,5.2037
2023-04-15T01:11:28.528Z,5.1397
2023-04-15T01:12:28.736Z,5.0416
2023-04-15T01:13:29.023Z,4.9955
2023-04-15T01:14:29.316Z,5.0398
2023-04-15T01:15:29.629Z,5.1002
2023-04-15T01:16:29.983Z,5.1122
2023-04-15T01:17:30.235Z,5.1408
2023-04-15T01:18:30.484Z,5.2499
2023-04-15T01:19:30.753Z,5.3271
2023-04-15T01:20:31.071Z,5.3364
2023-04-15T01:21:31.361Z,5.3672
2023-04-15T01:22:31.665Z,5.3472
2023-04-15T01:23:31.916Z,5.3655
2023-04-15T01:24:34.326Z,5.4366
2023-04-15T01:25:36.131Z,5.4225
2023-04-15T01:26:36.445Z,5.4113
2023-04-15T01:27:36.719Z,5.3915
2023-04-15T01:28:37.050Z,5.5116
2023-04-15T01:29:37.316Z,5.5374
2023-04-15T01:30:37.588Z,5.5433
2023-04-15T01:31:37.936Z,5.5854
2023-04-15T01:32:38.322Z,5.5736
2023-04-15T01:33:38.629Z,5.5923
2023-04-15T01:34:38.924Z,5.5676
2023-04-15T01:35:39.199Z,5.5917
2023-04-15T01:36:39.478Z,5.6701
2023-04-15T01:37:39.762Z,5.6581
2023-04-15T01:38:40.042Z,5.7252
2023-04-15T01:39:40.328Z,5.8674
2023-04-15T01:40:40.556Z,5.8796
2023-04-15T01:41:40.835Z,5.9023
2023-04-15T01:42:41.147Z,6.0202
2023-04-15T01:43:41.391Z,5.9133
2023-04-15T01:44:41.672Z,5.8593
2023-04-15T01:45:41.900Z,5.8484
2023-04-15T01:46:42.155Z,5.9177
2023-04-15T01:47:42.481Z,5.9370
2023-04-15T01:48:42.730Z,5.9434
2023-04-15T01:49:42.959Z,5.9559
2023-04-15T01:50:43.237Z,5.9726
2023-04-15T01:51:43.542Z,5.9964
2023-04-15T01:52:43.918Z,5.9765
2023-04-15T01:53:44.265Z,5.9842
2023-04-15T01:54:44.629Z,5.9923
2023-04-15T01:55:44.939Z,6.0060
2023-04-15T01:56:45.271Z,6.0599
2023-04-15T01:57:45.610Z,6.0144
2023-04-15T01:58:46.040Z,6.0165
2023-04-15T01:59:46.353Z,5.9640
2023-04-15T02:00:46.702Z,5.8869
2023-04-15T02:01:47.018Z,5.8058
2023-04-15T02:02:47.339Z,5.4705
2023-04-15T02:03:47.891Z,5.3918
2023-04-15T02:04:48.524Z,5.3443
2023-04-15T02:05:48.816Z,5.3836
2023-04-15T02:06:49.170Z,5.3607
2023-04-15T02:07:49.471Z,5.3863
2023-04-15T02:08:49.739Z,5.4286
2023-04-15T02:09:50.106Z,5.4402
2023-04-15T02:10:50.456Z,5.4562
2023-04-15T02:11:50.779Z,5.4915
2023-04-15T02:12:51.075Z,5.5124
2023-04-15T02:13:51.410Z,5.4684
2023-04-15T02:14:51.753Z,5.4921
2023-04-15T02:15:52.237Z,5.5873
2023-04-15T02:16:52.623Z,5.5933
2023-04-15T02:17:52.984Z,5.6002
2023-04-15T02:18:53.329Z,5.6095
2023-04-15T02:19:53.657Z,5.6467
2023-04-15T02:20:53.953Z,5.6422
2023-04-15T02:21:54.281Z,5.5822
2023-04-15T02:22:54.599Z,5.5506
2023-04-15T02:23:54.916Z,5.4447
2023-04-15T02:24:55.222Z,5.3421
2023-04-15T02:25:55.586Z,5.2441
2023-04-15T02:26:55.934Z,5.1006
2023-04-15T02:27:56.209Z,4.9612
2023-04-15T02:28:56.576Z,5.1105
2023-04-15T02:29:56.907Z,5.0185
2023-04-15T02:30:57.320Z,5.0272
2023-04-15T02:31:57.783Z,5.0797
2023-04-15T02:32:58.134Z,5.1884
2023-04-15T02:33:58.444Z,5.2203
2023-04-15T02:34:58.779Z,5.2972
2023-04-15T02:35:59.076Z,5.2392
2023-04-15T02:36:59.384Z,5.2049
2023-04-15T02:37:59.629Z,5.2378
2023-04-15T02:39:00.127Z,5.1528
2023-04-15T02:40:00.661Z,5.1170
2023-04-15T02:41:00.907Z,5.1485
2023-04-15T02:42:01.293Z,5.2375
2023-04-15T02:43:01.542Z,5.2723
2023-04-15T02:44:01.910Z,5.3572
2023-04-15T02:45:02.349Z,5.3416
2023-04-15T02:46:02.853Z,5.3220
2023-04-15T02:47:03.287Z,5.3438
2023-04-15T02:48:03.617Z,5.2184
2023-04-15T02:49:03.914Z,5.2774
2023-04-15T02:50:04.266Z,5.3136
2023-04-15T02:51:04.563Z,5.3416
2023-04-15T02:52:04.848Z,5.3427
2023-04-15T02:53:05.173Z,5.3057
2023-04-15T02:54:05.488Z,5.2629
2023-04-15T02:55:05.796Z,5.2535
2023-04-15T02:56:06.137Z,5.3239
2023-04-15T02:57:06.458Z,5.3286
2023-04-15T02:58:06.816Z,5.3262
2023-04-15T02:59:07.154Z,5.3191
2023-04-15T03:00:07.475Z,5.3423
2023-04-15T03:01:08.128Z,5.2428
2023-04-15T03:02:08.817Z,5.2674
2023-04-15T03:03:09.276Z,5.2790
2023-04-15T03:04:09.723Z,5.3655
2023-04-15T03:05:10.153Z,5.3933
2023-04-15T03:06:10.416Z,5.3696
2023-04-15T03:07:10.753Z,5.3630
2023-04-15T03:08:11.030Z,5.3487
2023-04-15T03:09:11.357Z,5.3917
2023-04-15T03:10:11.693Z,5.4172
2023-04-15T03:11:13.175Z,5.4931
2023-04-15T03:12:13.503Z,5.4779
2023-04-15T03:13:13.849Z,5.4927
2023-04-15T03:14:14.138Z,5.4818
2023-04-15T03:15:14.499Z,5.4620
2023-04-15T03:16:14.868Z,5.4811
2023-04-15T03:17:15.198Z,5.4835
2023-04-15T03:18:15.491Z,5.4763
2023-04-15T03:19:15.849Z,5.5306
2023-04-15T03:20:16.243Z,5.4887
2023-04-15T03:21:16.661Z,5.4319
2023-04-15T03:22:17.001Z,5.4365
2023-04-15T03:23:17.315Z,5.4336
2023-04-15T03:24:17.678Z,5.4012
2023-04-15T03:25:17.969Z,5.3982
2023-04-15T03:26:18.283Z,5.3321
2023-04-15T03:27:18.606Z,5.3507
2023-04-15T03:28:19.094Z,5.3706
2023-04-15T03:29:19.626Z,5.4740
2023-04-15T03:30:19.946Z,5.5146
2023-04-15T03:31:20.315Z,5.5146
2023-04-15T03:32:20.640Z,5.5738
2023-04-15T03:33:20.985Z,5.5454
2023-04-15T03:34:21.367Z,5.5089
2023-04-15T03:35:21.730Z,5.5108
2023-04-15T03:36:22.052Z,5.5860
2023-04-15T03:37:22.381Z,5.5612
2023-04-15T03:38:22.662Z,5.5898
2023-04-15T03:39:22.974Z,5.6342
2023-04-15T03:40:23.271Z,5.6590
2023-04-15T03:41:23.559Z,5.6600
2023-04-15T03:42:23.859Z,5.6408
2023-04-15T03:43:24.234Z,5.6282
2023-04-15T03:44:24.501Z,5.5826
2023-04-15T03:45:24.818Z,5.5066
2023-04-15T03:46:25.189Z,5.5092
2023-04-15T03:47:25.589Z,5.5381
2023-04-15T03:48:25.901Z,5.4905
2023-04-15T03:49:26.241Z,5.5047
2023-04-15T03:50:26.559Z,5.5213
2023-04-15T03:51:26.889Z,5.5694
2023-04-15T03:52:27.165Z,5.5624
2023-04-15T03:53:27.561Z,5.4629
2023-04-15T03:54:27.868Z,5.4194
2023-04-15T03:55:28.212Z,5.4232
2023-04-15T03:56:28.718Z,5.4384
2023-04-15T03:57:29.297Z,5.4527
2023-04-15T03:58:29.615Z,5.4506
2023-04-15T03:59:29.981Z,5.5002
2023-04-15T04:00:30.294Z,5.5555
2023-04-15T04:01:30.714Z,5.5604
2023-04-15T04:02:31.114Z,5.5694
2023-04-15T04:03:31.671Z,5.5602
2023-04-15T04:04:32.184Z,5.5624
2023-04-15T04:05:32.817Z,5.5506
2023-04-15T04:06:33.318Z,5.5587
2023-04-15T04:07:33.673Z,5.5666
2023-04-15T04:08:33.977Z,5.5635
2023-04-15T04:09:34.314Z,5.5886
2023-04-15T04:10:34.617Z,5.6118
2023-04-15T04:11:36.353Z,5.6343
2023-04-15T04:12:36.646Z,5.6532
2023-04-15T04:13:36.970Z,5.6299
2023-04-15T04:14:37.290Z,5.6119
2023-04-15T04:15:37.757Z,5.6191
2023-04-15T04:16:38.119Z,5.6312
2023-04-15T04:17:38.431Z,5.6169
2023-04-15T04:18:38.743Z,5.6407
2023-04-15T04:19:39.038Z,5.6734
2023-04-15T04:20:39.366Z,5.6488
2023-04-15T04:21:39.730Z,5.6321
2023-04-15T04:22:40.112Z,5.6658
2023-04-15T04:23:40.467Z,5.6429
2023-04-15T04:24:40.742Z,5.6042
2023-04-15T04:25:41.052Z,5.6323
2023-04-15T04:26:41.357Z,5.6611
2023-04-15T04:27:41.648Z,5.6673
2023-04-15T04:28:41.930Z,5.6229
2023-04-15T04:29:42.269Z,5.6309
2023-04-15T04:30:42.605Z,5.6413
2023-04-15T04:31:42.932Z,5.6064
2023-04-15T04:32:43.300Z,5.6182
2023-04-15T04:33:43.593Z,5.6106
2023-04-15T04:34:43.948Z,5.5036
2023-04-15T04:35:44.321Z,5.5197
2023-04-15T04:36:44.660Z,5.4930
2023-04-15T04:37:45.027Z,5.4636
2023-04-15T04:38:45.327Z,5.5404
2023-04-15T04:39:45.669Z,5.5868
2023-04-15T04:40:46.011Z,5.5790
2023-04-15T04:41:46.359Z,5.6134
2023-04-15T04:42:46.687Z,5.5929
2023-04-15T04:43:47.007Z,5.6167
2023-04-15T04:44:47.309Z,5.6278
2023-04-15T04:45:47.714Z,5.6329
2023-04-15T04:46:48.023Z,5.6365
2023-04-15T04:47:48.331Z,5.6165
2023-04-15T04:48:48.684Z,5.6244
2023-04-15T04:49:49.013Z,5.6237
2023-04-15T04:50:49.374Z,5.6451
2023-04-15T04:51:49.629Z,5.6559
2023-04-15T04:52:49.987Z,5.5934
2023-04-15T04:53:50.322Z,5.5545
2023-04-15T04:54:50.640Z,5.5754
2023-04-15T04:55:50.976Z,5.5238
2023-04-15T04:56:51.325Z,5.5410
2023-04-15T04:57:51.699Z,5.5712
2023-04-15T04:58:52.055Z,5.5822
2023-04-15T04:59:52.354Z,5.6449
2023-04-15T05:00:52.697Z,5.6074
2023-04-15T05:01:53.056Z,5.6251
2023-04-15T05:02:53.538Z,5.6197
2023-04-15T05:03:54.135Z,5.6214
2023-04-15T05:04:54.590Z,5.6277
2023-04-15T05:05:54.966Z,5.5643
2023-04-15T05:06:55.336Z,5.5938
2023-04-15T05:07:55.756Z,5.6295
2023-04-15T05:08:56.049Z,5.5947
2023-04-15T05:09:56.397Z,5.5886
2023-04-15T05:10:56.741Z,5.5360
2023-04-15T05:11:57.049Z,5.5809
2023-04-15T05:12:57.384Z,5.6090
2023-04-15T05:13:57.707Z,5.6475
2023-04-15T05:14:58.079Z,5.6309
2023-04-15T05:15:58.440Z,5.6416
2023-04-15T05:16:58.762Z,5.6348
2023-04-15T05:17:59.194Z,5.6513
2023-04-15T05:18:59.632Z,5.6769
2023-04-15T05:20:00.211Z,5.7136
2023-04-15T05:21:00.563Z,5.7307
2023-04-15T05:22:00.872Z,5.7414
2023-04-15T05:23:01.244Z,5.7191
2023-04-15T05:24:01.553Z,5.7675
2023-04-15T05:25:01.884Z,5.7662
2023-04-15T05:26:02.218Z,5.7787
2023-04-15T05:27:02.590Z,5.8558
2023-04-15T05:28:03.008Z,5.8666
2023-04-15T05:29:03.457Z,5.8252
2023-04-15T05:30:03.947Z,5.8986
2023-04-15T05:31:04.321Z,5.9047
2023-04-15T05:32:04.652Z,5.9118
2023-04-15T05:33:05.105Z,5.9119
2023-04-15T05:34:05.512Z,5.9783
2023-04-15T05:35:05.839Z,5.9994
2023-04-15T05:36:06.172Z,5.9840
2023-04-15T05:37:06.507Z,5.9904
2023-04-15T05:38:06.857Z,6.0062
2023-04-15T05:39:07.222Z,6.0102
2023-04-15T05:40:07.590Z,6.0409
2023-04-15T05:41:07.888Z,6.0688
2023-04-15T05:42:08.260Z,6.0814
2023-04-15T05:43:08.605Z,6.0718
2023-04-15T05:44:08.896Z,6.0444
2023-04-15T05:45:09.307Z,6.0465
2023-04-15T05:46:09.736Z,6.0857
2023-04-15T05:47:10.026Z,6.1075
2023-04-15T05:48:10.443Z,6.1114
2023-04-15T05:49:10.814Z,6.1618
2023-04-15T05:50:11.160Z,6.1889
2023-04-15T05:51:11.640Z,6.1673
2023-04-15T05:52:11.964Z,6.2211
2023-04-15T05:53:12.280Z,6.2527
2023-04-15T05:54:12.585Z,6.0055
2023-04-15T05:55:12.916Z,6.1397
2023-04-15T05:56:13.242Z,6.1583
2023-04-15T05:57:13.562Z,6.2321
2023-04-15T05:58:13.887Z,6.2190
2023-04-15T05:59:14.177Z,6.2779
2023-04-15T06:00:14.569Z,6.3083
2023-04-15T06:01:14.892Z,6.3282
2023-04-15T06:02:15.335Z,6.3195
2023-04-15T06:03:15.704Z,6.3422
2023-04-15T06:04:16.028Z,6.3613
2023-04-15T06:05:16.372Z,6.3673
2023-04-15T06:06:16.890Z,6.4194
2023-04-15T06:07:17.288Z,6.4280
2023-04-15T06:08:17.615Z,6.4318
2023-04-15T06:09:17.885Z,6.5082
2023-04-15T06:10:18.164Z,6.4554
2023-04-15T06:11:18.437Z,6.5265
2023-04-15T06:12:18.867Z,6.5202
2023-04-15T06:13:19.127Z,6.5875
2023-04-15T06:14:19.423Z,6.7287
2023-04-15T06:15:19.797Z,6.7382
2023-04-15T06:16:20.081Z,6.6994
2023-04-15T06:17:20.451Z,6.7787
2023-04-15T06:18:20.702Z,6.7815
2023-04-15T06:19:21.149Z,6.8061
2023-04-15T06:20:21.397Z,6.6599
2023-04-15T06:21:21.740Z,6.6969
2023-04-15T06:22:22.091Z,6.7884
2023-04-15T06:23:22.411Z,6.8219
2023-04-15T06:24:22.732Z,6.8902
2023-04-15T06:25:23.047Z,6.9157
2023-04-15T06:26:23.321Z,6.9331
2023-04-15T06:27:23.654Z,7.0410
2023-04-15T06:28:23.940Z,7.0420
2023-04-15T06:29:24.251Z,7.0292
2023-04-15T06:30:24.639Z,7.1124
2023-04-15T06:31:24.973Z,7.2048
2023-04-15T06:32:25.297Z,7.0525
2023-04-15T06:33:25.597Z,7.0720
2023-04-15T06:34:25.941Z,6.9562
2023-04-15T06:35:26.241Z,6.8757
2023-04-15T06:36:26.608Z,7.1902
2023-04-15T06:37:26.914Z,7.2567
2023-04-15T06:38:27.334Z,7.2984
2023-04-15T06:39:27.661Z,7.3540
2023-04-15T06:40:27.996Z,7.3599
2023-04-15T06:41:28.255Z,7.4779
2023-04-15T06:42:28.575Z,7.5099
2023-04-15T06:43:28.907Z,7.5006
2023-04-15T06:44:29.268Z,7.4124
2023-04-15T06:45:29.678Z,7.4350
2023-04-15T06:46:30.005Z,7.5439
2023-04-15T06:47:30.370Z,7.5306
2023-04-15T06:48:30.794Z,7.3988
2023-04-15T06:49:31.146Z,7.3438
2023-04-15T06:50:31.517Z,7.5587
2023-04-15T06:51:31.839Z,7.6086
2023-04-15T06:52:32.184Z,7.6483
2023-04-15T06:53:32.617Z,7.5718
2023-04-15T06:54:32.943Z,7.6184
2023-04-15T06:55:33.295Z,7.4266
2023-04-15T06:56:33.629Z,7.4685
2023-04-15T06:57:35.160Z,7.5645
2023-04-15T06:58:35.603Z,7.4383
2023-04-15T06:59:36.132Z,7.3236
2023-04-15T07:00:36.467Z,7.2269
2023-04-15T07:01:36.903Z,7.4260
2023-04-15T07:02:37.319Z,7.5089
2023-04-15T07:03:37.768Z,7.3544
2023-04-15T07:04:38.351Z,7.3610
2023-04-15T07:05:38.745Z,7.3436
2023-04-15T07:06:39.242Z,7.5114
2023-04-15T07:07:39.594Z,7.4904
2023-04-15T07:08:39.902Z,7.7016
2023-04-15T07:09:40.328Z,7.6955
2023-04-15T07:10:40.600Z,7.6869
2023-04-15T07:11:40.956Z,7.7409
2023-04-15T07:12:41.274Z,7.7274
2023-04-15T07:13:41.650Z,7.8067
2023-04-15T07:14:41.989Z,7.6632
2023-04-15T07:15:42.319Z,7.6264
2023-04-15T07:16:42.720Z,7.8225
2023-04-15T07:17:43.107Z,7.6528
2023-04-15T07:18:43.473Z,7.6445
2023-04-15T07:19:43.819Z,7.4746
2023-04-15T07:20:44.111Z,7.7119
2023-04-15T07:21:44.470Z,7.6856
2023-04-15T07:22:44.805Z,7.6672
2023-04-15T07:23:45.174Z,7.6548
2023-04-15T07:24:45.583Z,7.7254
2023-04-15T07:25:45.934Z,7.6551
2023-04-15T07:26:46.299Z,7.6433
2023-04-15T07:27:46.624Z,7.8340
2023-04-15T07:28:46.968Z,7.7671
2023-04-15T07:29:47.399Z,7.7388
2023-04-15T07:30:47.818Z,7.8146
2023-04-15T07:31:48.196Z,7.7280
2023-04-15T07:32:48.529Z,7.8247
2023-04-15T07:33:48.962Z,7.7612
2023-04-15T07:34:49.358Z,7.6617
2023-04-15T07:35:49.750Z,7.6214
2023-04-15T07:36:50.075Z,7.6115
2023-04-15T07:37:50.437Z,7.7261
2023-04-15T07:38:50.836Z,7.7889
2023-04-15T07:39:51.325Z,7.7442
2023-04-15T07:40:51.676Z,7.5105
2023-04-15T07:41:52.141Z,7.4783
2023-04-15T07:42:52.515Z,7.5331
2023-04-15T07:43:52.838Z,7.7101
2023-04-15T07:44:53.242Z,7.9792
2023-04-15T07:45:53.642Z,7.7475
2023-04-15T07:46:54.035Z,7.6357
2023-04-15T07:47:54.401Z,7.7548
2023-04-15T07:48:54.745Z,7.6849
2023-04-15T07:49:55.095Z,7.7340
2023-04-15T07:50:55.445Z,7.7411
2023-04-15T07:51:55.791Z,7.8775
2023-04-15T07:52:56.128Z,7.7534
2023-04-15T07:53:56.492Z,7.8914
2023-04-15T07:54:56.811Z,7.7420
2023-04-15T07:55:57.188Z,7.7210
2023-04-15T07:56:57.569Z,7.6398
2023-04-15T07:57:57.907Z,7.7512
2023-04-15T07:58:58.292Z,7.7064
2023-04-15T07:59:58.593Z,7.7689
2023-04-15T08:00:58.963Z,7.8362
2023-04-15T08:01:59.335Z,7.9547
2023-04-15T08:02:59.819Z,7.9176
2023-04-15T08:04:00.763Z,7.9645
2023-04-15T08:05:01.265Z,8.0087
2023-04-15T08:06:01.590Z,8.0873
2023-04-15T08:07:01.943Z,7.9878
2023-04-15T08:08:02.293Z,8.1242
2023-04-15T08:09:02.885Z,8.2014
2023-04-15T08:10:03.317Z,7.7573
2023-04-15T08:11:03.662Z,7.9083
2023-04-15T08:12:04.022Z,7.9734
2023-04-15T08:13:04.352Z,8.0254
2023-04-15T08:14:04.696Z,8.1590
2023-04-15T08:15:04.996Z,8.2256
2023-04-15T08:16:05.415Z,8.2373
2023-04-15T08:17:05.792Z,8.2883
2023-04-15T08:18:06.107Z,8.2666
2023-04-15T08:19:06.471Z,8.5547
2023-04-15T08:20:06.839Z,8.3224
2023-04-15T08:21:07.170Z,8.5537
2023-04-15T08:22:15.636Z,8.3237
2023-04-15T08:23:08.562Z,8.2190
2023-04-15T08:24:08.905Z,8.3744
2023-04-15T08:25:09.237Z,8.4110
2023-04-15T08:26:09.563Z,8.4722
2023-04-15T08:27:09.907Z,8.2274
2023-04-15T08:28:10.225Z,8.2569
2023-04-15T08:29:10.558Z,8.6374
2023-04-15T08:30:10.912Z,8.7779
2023-04-15T08:31:11.256Z,8.8831
2023-04-15T08:32:11.695Z,8.3951
2023-04-15T08:33:12.026Z,8.4503
2023-04-15T08:34:12.375Z,8.8190
2023-04-15T08:35:12.698Z,8.7113
2023-04-15T08:36:13.044Z,8.6509
2023-04-15T08:37:13.469Z,8.7414
2023-04-15T08:38:13.833Z,8.9851
2023-04-15T08:39:14.210Z,9.0528
2023-04-15T08:40:14.548Z,8.8647
2023-04-15T08:41:14.854Z,8.8725
2023-04-15T08:42:15.217Z,8.9365
2023-04-15T08:43:15.570Z,8.7794
2023-04-15T08:44:15.903Z,8.6752
2023-04-15T08:45:16.334Z,8.9030
2023-04-15T08:46:16.681Z,8.5918
2023-04-15T08:47:17.047Z,8.4000
2023-04-15T08:48:17.418Z,8.5639
2023-04-15T08:49:17.765Z,8.6901
2023-04-15T08:50:18.088Z,8.9099
2023-04-15T08:51:18.395Z,9.0882
2023-04-15T08:52:18.757Z,8.9783
2023-04-15T08:53:19.079Z,8.9201
2023-04-15T08:54:19.437Z,9.0939
2023-04-15T08:55:19.730Z,9.1089
2023-04-15T08:56:20.042Z,9.0926
2023-04-15T08:57:20.454Z,8.8955
2023-04-15T08:58:20.799Z,9.0111
2023-04-15T08:59:21.163Z,9.2852
2023-04-15T09:00:21.437Z,9.3559
2023-04-15T09:01:21.873Z,8.9863
2023-04-15T09:02:22.424Z,9.0472
2023-04-15T09:03:23.064Z,9.2325
2023-04-15T09:04:23.420Z,9.3002
2023-04-15T09:05:23.764Z,9.2905
2023-04-15T09:06:24.084Z,9.1842
2023-04-15T09:07:24.472Z,9.1297
2023-04-15T09:08:24.871Z,9.1408
2023-04-15T09:09:25.334Z,8.9474
2023-04-15T09:10:25.677Z,8.8713
2023-04-15T09:11:26.052Z,8.8240
2023-04-15T09:12:26.316Z,8.8761
2023-04-15T09:13:26.662Z,8.9729
2023-04-15T09:14:26.987Z,8.7838
2023-04-15T09:15:27.320Z,8.8344
2023-04-15T09:16:27.682Z,8.7118
2023-04-15T09:17:28.128Z,8.6635
2023-04-15T09:18:28.400Z,8.6004
2023-04-15T09:19:28.732Z,8.6788
2023-04-15T09:20:29.077Z,8.7954
2023-04-15T09:21:29.373Z,8.8985
2023-04-15T09:22:29.708Z,9.0816
2023-04-15T09:23:30.155Z,9.1350
2023-04-15T09:24:30.510Z,9.1279
2023-04-15T09:25:32.776Z,9.1298
2023-04-15T09:26:31.280Z,9.1679
2023-04-15T09:27:31.607Z,9.2028
2023-04-15T09:28:31.942Z,9.1910
2023-04-15T09:29:32.331Z,9.0716
2023-04-15T09:30:32.692Z,9.1658
2023-04-15T09:31:33.026Z,9.0809
2023-04-15T09:32:33.352Z,9.3578
2023-04-15T09:33:34.179Z,9.3823
2023-04-15T09:34:34.551Z,9.3823
2023-04-15T09:35:34.879Z,9.2400
2023-04-15T09:36:35.169Z,9.4471
2023-04-15T09:37:35.546Z,9.5296
2023-04-15T09:38:35.951Z,9.5877
2023-04-15T09:39:36.326Z,9.7774
2023-04-15T09:40:36.691Z,9.7913
2023-04-15T09:41:37.184Z,9.7338
2023-04-15T09:42:37.610Z,9.4145
2023-04-15T09:43:38.083Z,9.2655
2023-04-15T09:44:38.400Z,9.5712
2023-04-15T09:45:38.741Z,9.6400
2023-04-15T09:46:39.071Z,9.6482
2023-04-15T09:47:39.386Z,9.8275
2023-04-15T09:48:39.701Z,9.8246
2023-04-15T09:49:40.045Z,9.8266
2023-04-15T09:50:40.366Z,9.6929
2023-04-15T09:51:41.294Z,9.7671
2023-04-15T09:52:41.724Z,10.0055
2023-04-15T09:53:42.160Z,9.8364
2023-04-15T09:54:42.500Z,9.2411
2023-04-15T09:55:42.887Z,8.8291
2023-04-15T09:56:43.254Z,8.9653
2023-04-15T09:57:44.572Z,9.0648
2023-04-15T09:58:44.994Z,8.9651
2023-04-15T09:59:45.300Z,9.0684
2023-04-15T10:00:45.616Z,9.3716
2023-04-15T10:01:46.162Z,9.4147
2023-04-15T10:02:46.607Z,9.2705
2023-04-15T10:03:47.089Z,9.5299
2023-04-15T10:04:47.430Z,9.5801
2023-04-15T10:05:47.833Z,9.4225
2023-04-15T10:06:48.132Z,9.6327
2023-04-15T10:07:48.496Z,9.0237
2023-04-15T10:08:48.967Z,9.1089
2023-04-15T10:09:49.379Z,9.4350
2023-04-15T10:10:49.706Z,9.1519
2023-04-15T10:11:50.117Z,8.7322
2023-04-15T10:12:50.428Z,9.0797
2023-04-15T10:13:50.775Z,9.2436
2023-04-15T10:14:51.059Z,9.2094
2023-04-15T10:15:51.437Z,9.1971
2023-04-15T10:16:51.847Z,9.2343
2023-04-15T10:17:52.457Z,9.2606
2023-04-15T10:18:52.831Z,9.0581
2023-04-15T10:19:53.200Z,9.2930
2023-04-15T10:20:53.517Z,9.0809
2023-04-15T10:21:53.868Z,8.9069
2023-04-15T10:22:54.229Z,9.1278
2023-04-15T10:23:54.587Z,9.2344
2023-04-15T10:24:54.912Z,9.1950
2023-04-15T10:25:55.282Z,9.2336
2023-04-15T10:26:55.688Z,9.1082
2023-04-15T10:27:56.060Z,9.0269
2023-04-15T10:28:56.946Z,9.1066
2023-04-15T10:29:58.255Z,9.1971
2023-04-15T10:30:59.147Z,9.3730
2023-04-15T10:31:59.673Z,9.3271
2023-04-15T10:33:00.280Z,9.2208
2023-04-15T10:34:01.014Z,9.1856
2023-04-15T10:35:01.512Z,9.2160
2023-04-15T10:36:02.076Z,9.1580
2023-04-15T10:37:02.360Z,9.1229
2023-04-15T10:38:02.712Z,9.2835
2023-04-15T10:39:03.066Z,9.2444
2023-04-15T10:40:05.535Z,9.3252
2023-04-15T10:41:05.931Z,9.3620
2023-04-15T10:42:06.394Z,9.4178
2023-04-15T10:43:06.735Z,9.4432
2023-04-15T10:44:07.093Z,9.3017
2023-04-15T10:45:07.413Z,9.2826
2023-04-15T10:46:07.759Z,9.3749
2023-04-15T10:47:08.059Z,9.3945
2023-04-15T10:48:08.443Z,9.4060
2023-04-15T10:49:08.789Z,9.4399
2023-04-15T10:50:09.145Z,9.4691
2023-04-15T10:51:09.462Z,9.4115
2023-04-15T10:52:09.812Z,9.4883
2023-04-15T10:53:10.105Z,9.4532
2023-04-15T10:54:10.440Z,9.5129
2023-04-15T10:55:10.742Z,9.2960
2023-04-15T10:56:11.085Z,9.1672
2023-04-15T10:57:11.383Z,9.1706
2023-04-15T10:58:11.735Z,9.1766
2023-04-15T10:59:12.101Z,9.1637
2023-04-15T11:00:12.490Z,9.2585
2023-04-15T11:01:12.793Z,9.1068
2023-04-15T11:02:13.262Z,9.1372
2023-04-15T11:03:13.710Z,9.2812
2023-04-15T11:04:14.260Z,9.2441
2023-04-15T11:05:14.566Z,9.4821
2023-04-15T11:06:14.921Z,9.2166
2023-04-15T11:07:15.250Z,9.1346
2023-04-15T11:08:15.569Z,9.2131
2023-04-15T11:09:15.967Z,9.2920
2023-04-15T11:10:16.292Z,9.3545
2023-04-15T11:11:16.634Z,9.2402
2023-04-15T11:12:17.002Z,9.2269
2023-04-15T11:13:17.433Z,9.0891
2023-04-15T11:14:17.895Z,9.1530
2023-04-15T11:15:18.252Z,9.2736
2023-04-15T11:16:18.657Z,9.4453
2023-04-15T11:17:18.931Z,9.5155
2023-04-15T11:18:19.277Z,9.6758
2023-04-15T11:19:19.639Z,9.5730
2023-04-15T11:20:19.958Z,9.3412
2023-04-15T11:21:20.260Z,9.3317
2023-04-15T11:22:20.617Z,9.0916
2023-04-15T11:23:20.889Z,9.0819
2023-04-15T11:24:21.269Z,9.1137
2023-04-15T11:25:22.249Z,8.8648
2023-04-15T11:26:22.591Z,8.9262
2023-04-15T11:27:22.961Z,8.6756
2023-04-15T11:28:23.352Z,8.5545
2023-04-15T11:29:23.757Z,8.5191
2023-04-15T11:30:24.194Z,8.5714
2023-04-15T11:31:24.620Z,8.5806
2023-04-15T11:32:25.298Z,8.7255
2023-04-15T11:33:25.991Z,8.8036
2023-04-15T11:34:26.411Z,9.0652
2023-04-15T11:35:26.785Z,8.8594
2023-04-15T11:36:27.200Z,8.8941
2023-04-15T11:37:27.532Z,8.8089
2023-04-15T11:38:27.874Z,8.7680
2023-04-15T11:39:28.303Z,8.6464
2023-04-15T11:40:28.654Z,8.6642
2023-04-15T11:41:29.030Z,8.5276
2023-04-15T11:42:39.280Z,8.5208
2023-04-15T11:43:30.658Z,8.5426
2023-04-15T11:44:31.103Z,8.5750
2023-04-15T11:45:31.515Z,8.5733
2023-04-15T11:46:32.240Z,8.7530
2023-04-15T11:47:32.945Z,8.6787
2023-04-15T11:48:33.405Z,8.8000
2023-04-15T11:49:33.771Z,8.8257
2023-04-15T11:50:34.197Z,8.7360
2023-04-15T11:51:34.571Z,8.6490
2023-04-15T11:52:34.985Z,8.5817
2023-04-15T11:53:35.373Z,8.7111
2023-04-15T11:54:35.777Z,9.0170
2023-04-15T11:55:36.208Z,8.8151
2023-04-15T11:56:36.584Z,9.0161
2023-04-15T11:57:36.983Z,9.0210
2023-04-15T11:58:37.371Z,9.1374
2023-04-15T11:59:45.446Z,9.1381
2023-04-15T12:00:38.829Z,9.0939
2023-04-15T12:01:39.219Z,9.2051
2023-04-15T12:02:39.669Z,9.1877
2023-04-15T12:03:40.277Z,9.2699
2023-04-15T12:04:41.208Z,9.2103
2023-04-15T12:05:41.891Z,9.1764
2023-04-15T12:06:42.310Z,9.4383
2023-04-15T12:07:42.680Z,9.7253
2023-04-15T12:08:43.048Z,9.9550
2023-04-15T12:09:43.417Z,10.1822
2023-04-15T12:10:43.851Z,10.1592
2023-04-15T12:11:44.223Z,10.1431
2023-04-15T12:12:44.581Z,10.0451
2023-04-15T12:13:44.989Z,9.8188
2023-04-15T12:14:45.331Z,9.7024
2023-04-15T12:15:45.735Z,9.6893
2023-04-15T12:16:48.632Z,9.7796
2023-04-15T12:17:51.726Z,9.9747
2023-04-15T12:18:50.021Z,9.9815
2023-04-15T12:19:50.367Z,9.9416
2023-04-15T12:20:50.776Z,9.7484
2023-04-15T12:21:51.154Z,9.6464
2023-04-15T12:22:51.871Z,10.1199
2023-04-15T12:23:52.178Z,10.3988
2023-04-15T12:24:52.542Z,10.5341
2023-04-15T12:25:52.940Z,10.4993
2023-04-15T12:26:53.296Z,10.4272
2023-04-15T12:27:53.673Z,10.4040
2023-04-15T12:28:53.991Z,10.3882
2023-04-15T12:29:54.363Z,10.3448
2023-04-15T12:30:54.742Z,10.1930
2023-04-15T12:31:55.130Z,10.2247
2023-04-15T12:32:56.002Z,10.0042